sensor_id;sensor_type;location;lat;lon;timestamp;temperature;humidity
37300;DHT22;23184;51.902;12.836;2023-03-16T00:01:04;-0.40;99.90
37300;DHT22;23184;51.902;12.836;2023-03-16T00:03:30;-0.50;99.90
37300;DHT22;23184;51.902;12.836;2023-03-16T00:05:55;-0.50;99.90
37300;DHT22;23184;51.902;12.836;2023-03-16T00:08:21;-0.50;99.90
37300;DHT22;23184;51.902;12.836;2023-03-16T00:10:46;-0.60;99.90
37300;DHT22;23184;51.902;12.836;2023-03-16T00:13:19;-0.40;99.90
37300;DHT22;23184;51.902;12.836;2023-03-16T00:15:56;-0.40;99.90
37300;DHT22;23184;51.902;12.836;2023-03-16T00:18:24;-0.40;99.90
37300;DHT22;23184;51.902;12.836;2023-03-16T00:20:59;-0.40;99.90
37300;DHT22;23184;51.902;12.836;2023-03-16T00:23:27;-0.30;99.90
37300;DHT22;23184;51.902;12.836;2023-03-16T00:25:57;-0.40;99.90
37300;DHT22;23184;51.902;12.836;2023-03-16T00:28:25;-0.40;99.90
37300;DHT22;23184;51.902;12.836;2023-03-16T00:30:51;-0.50;99.90
37300;DHT22;23184;51.902;12.836;2023-03-16T00:33:17;-0.50;99.90
37300;DHT22;23184;51.902;12.836;2023-03-16T00:35:46;-0.60;99.90
37300;DHT22;23184;51.902;12.836;2023-03-16T00:38:18;-0.60;99.90
37300;DHT22;23184;51.902;12.836;2023-03-16T00:40:45;-0.70;99.90
37300;DHT22;23184;51.902;12.836;2023-03-16T00:43:10;-0.70;99.90
37300;DHT22;23184;51.902;12.836;2023-03-16T00:45:36;-0.70;99.90
37300;DHT22;23184;51.902;12.836;2023-03-16T00:48:02;-0.70;99.90
37300;DHT22;23184;51.902;12.836;2023-03-16T00:50:27;-0.60;99.90
37300;DHT22;23184;51.902;12.836;2023-03-16T00:52:53;-0.60;99.90
37300;DHT22;23184;51.902;12.836;2023-03-16T00:55:21;-0.60;99.90
37300;DHT22;23184;51.902;12.836;2023-03-16T00:57:47;-0.60;99.90
37300;DHT22;23184;51.902;12.836;2023-03-16T01:00:13;-0.70;99.90
37300;DHT22;23184;51.902;12.836;2023-03-16T01:02:42;-0.70;99.90
37300;DHT22;23184;51.902;12.836;2023-03-16T01:05:11;-0.80;99.90
37300;DHT22;23184;51.902;12.836;2023-03-16T01:07:37;-0.80;99.90
37300;DHT22;23184;51.902;12.836;2023-03-16T01:10:04;-0.80;99.90
37300;DHT22;23184;51.902;12.836;2023-03-16T01:12:29;-0.80;99.90
37300;DHT22;23184;51.902;12.836;2023-03-16T01:14:55;-0.80;99.90
37300;DHT22;23184;51.902;12.836;2023-03-16T01:17:20;-0.70;99.90
37300;DHT22;23184;51.902;12.836;2023-03-16T01:19:49;-0.70;99.90
37300;DHT22;23184;51.902;12.836;2023-03-16T01:22:16;-0.70;99.90
37300;DHT22;23184;51.902;12.836;2023-03-16T01:24:42;-0.80;99.90
37300;DHT22;23184;51.902;12.836;2023-03-16T01:27:10;-0.80;99.90
37300;DHT22;23184;51.902;12.836;2023-03-16T01:29:37;-0.90;99.90
37300;DHT22;23184;51.902;12.836;2023-03-16T01:32:02;-0.90;99.90
37300;DHT22;23184;51.902;12.836;2023-03-16T01:34:29;-0.90;99.90
37300;DHT22;23184;51.902;12.836;2023-03-16T01:36:54;-0.90;99.90
37300;DHT22;23184;51.902;12.836;2023-03-16T01:39:20;-1.00;99.90
37300;DHT22;23184;51.902;12.836;2023-03-16T01:41:46;-1.00;99.90
37300;DHT22;23184;51.902;12.836;2023-03-16T01:44:17;-1.10;99.90
37300;DHT22;23184;51.902;12.836;2023-03-16T01:46:44;-1.10;99.90
37300;DHT22;23184;51.902;12.836;2023-03-16T01:49:17;-1.10;99.90
37300;DHT22;23184;51.902;12.836;2023-03-16T01:52:02;-1.10;99.90
37300;DHT22;23184;51.902;12.836;2023-03-16T01:54:36;-1.10;99.90
37300;DHT22;23184;51.902;12.836;2023-03-16T01:59:40;-1.20;99.90
37300;DHT22;23184;51.902;12.836;2023-03-16T02:02:07;-1.20;99.90
37300;DHT22;23184;51.902;12.836;2023-03-16T02:04:50;-1.20;99.90
37300;DHT22;23184;51.902;12.836;2023-03-16T02:07:17;-1.20;99.90
37300;DHT22;23184;51.902;12.836;2023-03-16T02:09:45;-1.30;99.90
37300;DHT22;23184;51.902;12.836;2023-03-16T02:12:13;-1.30;99.90
37300;DHT22;23184;51.902;12.836;2023-03-16T02:14:43;-1.40;99.90
37300;DHT22;23184;51.902;12.836;2023-03-16T02:17:09;-1.40;99.90
37300;DHT22;23184;51.902;12.836;2023-03-16T02:20:24;-1.40;99.90
37300;DHT22;23184;51.902;12.836;2023-03-16T02:22:39;-1.40;99.90
37300;DHT22;23184;51.902;12.836;2023-03-16T02:25:06;-1.30;99.90
37300;DHT22;23184;51.902;12.836;2023-03-16T02:27:41;-1.20;99.90
37300;DHT22;23184;51.902;12.836;2023-03-16T02:30:14;-1.10;99.90
37300;DHT22;23184;51.902;12.836;2023-03-16T02:32:40;-1.10;99.90
37300;DHT22;23184;51.902;12.836;2023-03-16T02:35:08;-1.00;99.90
37300;DHT22;23184;51.902;12.836;2023-03-16T02:37:34;-1.10;99.90
37300;DHT22;23184;51.902;12.836;2023-03-16T02:40:00;-1.10;99.90
37300;DHT22;23184;51.902;12.836;2023-03-16T02:42:28;-1.20;99.90
37300;DHT22;23184;51.902;12.836;2023-03-16T02:44:58;-1.30;99.90
37300;DHT22;23184;51.902;12.836;2023-03-16T02:47:29;-1.40;99.90
37300;DHT22;23184;51.902;12.836;2023-03-16T02:49:56;-1.30;99.90
37300;DHT22;23184;51.902;12.836;2023-03-16T02:52:22;-1.30;99.90
37300;DHT22;23184;51.902;12.836;2023-03-16T02:54:47;-1.20;99.90
37300;DHT22;23184;51.902;12.836;2023-03-16T02:57:13;-1.20;99.90
37300;DHT22;23184;51.902;12.836;2023-03-16T02:59:38;-1.10;99.90
37300;DHT22;23184;51.902;12.836;2023-03-16T03:02:04;-1.10;99.90
37300;DHT22;23184;51.902;12.836;2023-03-16T03:04:29;-1.20;99.90
37300;DHT22;23184;51.902;12.836;2023-03-16T03:06:57;-1.30;99.90
37300;DHT22;23184;51.902;12.836;2023-03-16T03:09:28;-1.30;99.90
37300;DHT22;23184;51.902;12.836;2023-03-16T03:11:53;-1.40;99.90
37300;DHT22;23184;51.902;12.836;2023-03-16T03:14:19;-1.50;99.90
37300;DHT22;23184;51.902;12.836;2023-03-16T03:16:44;-1.60;99.90
37300;DHT22;23184;51.902;12.836;2023-03-16T03:19:11;-1.60;99.90
37300;DHT22;23184;51.902;12.836;2023-03-16T03:21:36;-1.60;99.90
37300;DHT22;23184;51.902;12.836;2023-03-16T03:24:02;-1.60;99.90
37300;DHT22;23184;51.902;12.836;2023-03-16T03:26:28;-1.60;99.90
37300;DHT22;23184;51.902;12.836;2023-03-16T03:28:53;-1.70;99.90
37300;DHT22;23184;51.902;12.836;2023-03-16T03:31:21;-1.70;99.90
37300;DHT22;23184;51.902;12.836;2023-03-16T03:33:47;-1.70;99.90
37300;DHT22;23184;51.902;12.836;2023-03-16T03:36:12;-1.70;99.90
37300;DHT22;23184;51.902;12.836;2023-03-16T03:38:38;-1.70;99.90
37300;DHT22;23184;51.902;12.836;2023-03-16T03:41:04;-1.80;99.90
37300;DHT22;23184;51.902;12.836;2023-03-16T03:43:32;-1.80;99.90
37300;DHT22;23184;51.902;12.836;2023-03-16T03:45:58;-1.80;99.90
37300;DHT22;23184;51.902;12.836;2023-03-16T03:48:25;-1.80;99.90
37300;DHT22;23184;51.902;12.836;2023-03-16T03:50:51;-1.90;99.90
37300;DHT22;23184;51.902;12.836;2023-03-16T03:53:18;-2.00;99.90
37300;DHT22;23184;51.902;12.836;2023-03-16T03:55:43;-2.00;99.90
37300;DHT22;23184;51.902;12.836;2023-03-16T03:58:09;-2.00;99.90
37300;DHT22;23184;51.902;12.836;2023-03-16T04:00:34;-2.00;99.90
37300;DHT22;23184;51.902;12.836;2023-03-16T04:03:00;-2.00;99.90
37300;DHT22;23184;51.902;12.836;2023-03-16T04:05:26;-2.00;99.90
37300;DHT22;23184;51.902;12.836;2023-03-16T04:11:14;-1.90;99.90
37300;DHT22;23184;51.902;12.836;2023-03-16T04:13:39;-1.90;99.90
37300;DHT22;23184;51.902;12.836;2023-03-16T04:16:05;-1.80;99.90
37300;DHT22;23184;51.902;12.836;2023-03-16T04:18:31;-1.50;99.90
37300;DHT22;23184;51.902;12.836;2023-03-16T04:21:04;-1.50;99.90
37300;DHT22;23184;51.902;12.836;2023-03-16T04:23:30;-1.50;99.90
37300;DHT22;23184;51.902;12.836;2023-03-16T04:25:57;-1.60;99.90
37300;DHT22;23184;51.902;12.836;2023-03-16T04:28:23;-1.60;99.90
37300;DHT22;23184;51.902;12.836;2023-03-16T04:30:51;-1.60;99.90
37300;DHT22;23184;51.902;12.836;2023-03-16T04:33:19;-1.70;99.90
37300;DHT22;23184;51.902;12.836;2023-03-16T04:35:46;-1.80;99.90
37300;DHT22;23184;51.902;12.836;2023-03-16T04:38:11;-1.80;99.90
37300;DHT22;23184;51.902;12.836;2023-03-16T04:40:37;-1.80;99.90
37300;DHT22;23184;51.902;12.836;2023-03-16T04:43:03;-1.80;99.90
37300;DHT22;23184;51.902;12.836;2023-03-16T04:45:28;-1.80;99.90
37300;DHT22;23184;51.902;12.836;2023-03-16T04:47:54;-1.90;99.90
37300;DHT22;23184;51.902;12.836;2023-03-16T04:50:19;-2.00;99.90
37300;DHT22;23184;51.902;12.836;2023-03-16T04:52:44;-1.90;99.90
37300;DHT22;23184;51.902;12.836;2023-03-16T04:55:10;-1.90;99.90
37300;DHT22;23184;51.902;12.836;2023-03-16T04:57:36;-1.90;99.90
37300;DHT22;23184;51.902;12.836;2023-03-16T05:00:02;-1.90;99.90
37300;DHT22;23184;51.902;12.836;2023-03-16T05:02:34;-1.90;99.90
37300;DHT22;23184;51.902;12.836;2023-03-16T05:05:00;-1.90;99.90
37300;DHT22;23184;51.902;12.836;2023-03-16T05:07:25;-2.00;99.90
37300;DHT22;23184;51.902;12.836;2023-03-16T05:09:51;-2.00;99.90
37300;DHT22;23184;51.902;12.836;2023-03-16T05:12:17;-1.90;99.90
37300;DHT22;23184;51.902;12.836;2023-03-16T05:14:42;-2.00;99.90
37300;DHT22;23184;51.902;12.836;2023-03-16T05:17:08;-1.90;99.90
37300;DHT22;23184;51.902;12.836;2023-03-16T05:19:33;-1.90;99.90
37300;DHT22;23184;51.902;12.836;2023-03-16T05:21:59;-1.90;99.90
37300;DHT22;23184;51.902;12.836;2023-03-16T05:24:24;-1.90;99.90
37300;DHT22;23184;51.902;12.836;2023-03-16T05:26:50;-1.90;99.90
37300;DHT22;23184;51.902;12.836;2023-03-16T05:29:16;-1.90;99.90
37300;DHT22;23184;51.902;12.836;2023-03-16T05:31:41;-2.00;99.90
37300;DHT22;23184;51.902;12.836;2023-03-16T05:34:07;-2.00;99.90
37300;DHT22;23184;51.902;12.836;2023-03-16T05:36:32;-2.00;99.90
37300;DHT22;23184;51.902;12.836;2023-03-16T05:39:00;-2.00;99.90
37300;DHT22;23184;51.902;12.836;2023-03-16T05:41:26;-2.00;99.90
37300;DHT22;23184;51.902;12.836;2023-03-16T05:43:51;-2.00;99.90
37300;DHT22;23184;51.902;12.836;2023-03-16T05:46:17;-1.90;99.90
37300;DHT22;23184;51.902;12.836;2023-03-16T05:48:42;-1.90;99.90
37300;DHT22;23184;51.902;12.836;2023-03-16T05:51:08;-1.80;99.90
37300;DHT22;23184;51.902;12.836;2023-03-16T05:53:34;-1.80;99.90
37300;DHT22;23184;51.902;12.836;2023-03-16T05:56:00;-1.70;99.90
37300;DHT22;23184;51.902;12.836;2023-03-16T05:58:25;-1.70;99.90
37300;DHT22;23184;51.902;12.836;2023-03-16T06:00:51;-1.60;99.90
37300;DHT22;23184;51.902;12.836;2023-03-16T06:03:17;-1.50;99.90
37300;DHT22;23184;51.902;12.836;2023-03-16T06:05:42;-1.50;99.90
37300;DHT22;23184;51.902;12.836;2023-03-16T06:08:08;-1.40;99.90
37300;DHT22;23184;51.902;12.836;2023-03-16T06:10:35;-1.30;99.90
37300;DHT22;23184;51.902;12.836;2023-03-16T06:13:00;-1.30;99.90
37300;DHT22;23184;51.902;12.836;2023-03-16T06:15:26;-1.30;99.90
37300;DHT22;23184;51.902;12.836;2023-03-16T06:17:54;-1.30;99.90
37300;DHT22;23184;51.902;12.836;2023-03-16T06:20:20;-1.20;99.90
37300;DHT22;23184;51.902;12.836;2023-03-16T06:22:46;-1.10;99.90
37300;DHT22;23184;51.902;12.836;2023-03-16T06:25:12;-1.00;99.90
37300;DHT22;23184;51.902;12.836;2023-03-16T06:27:38;-0.90;99.90
37300;DHT22;23184;51.902;12.836;2023-03-16T06:30:08;-0.70;99.90
37300;DHT22;23184;51.902;12.836;2023-03-16T06:32:35;-0.50;99.90
37300;DHT22;23184;51.902;12.836;2023-03-16T06:35:01;-0.30;99.90
37300;DHT22;23184;51.902;12.836;2023-03-16T06:37:28;0.00;99.90
37300;DHT22;23184;51.902;12.836;2023-03-16T06:39:54;0.30;99.90
37300;DHT22;23184;51.902;12.836;2023-03-16T06:42:19;0.80;99.90
37300;DHT22;23184;51.902;12.836;2023-03-16T06:44:45;1.20;99.90
37300;DHT22;23184;51.902;12.836;2023-03-16T06:47:10;1.30;99.90
37300;DHT22;23184;51.902;12.836;2023-03-16T06:49:36;1.40;99.90
37300;DHT22;23184;51.902;12.836;2023-03-16T06:52:01;1.30;99.90
37300;DHT22;23184;51.902;12.836;2023-03-16T06:54:28;1.10;99.90
37300;DHT22;23184;51.902;12.836;2023-03-16T06:56:53;1.00;99.90
37300;DHT22;23184;51.902;12.836;2023-03-16T06:59:19;1.00;99.90
37300;DHT22;23184;51.902;12.836;2023-03-16T07:01:45;1.10;99.90
37300;DHT22;23184;51.902;12.836;2023-03-16T07:04:11;1.30;99.90
37300;DHT22;23184;51.902;12.836;2023-03-16T07:06:36;1.60;99.90
37300;DHT22;23184;51.902;12.836;2023-03-16T07:09:02;1.90;99.90
37300;DHT22;23184;51.902;12.836;2023-03-16T07:11:28;2.20;99.90
37300;DHT22;23184;51.902;12.836;2023-03-16T07:13:53;2.80;99.90
37300;DHT22;23184;51.902;12.836;2023-03-16T07:16:19;3.30;99.90
37300;DHT22;23184;51.902;12.836;2023-03-16T07:18:44;3.80;99.90
37300;DHT22;23184;51.902;12.836;2023-03-16T07:21:10;4.20;99.90
37300;DHT22;23184;51.902;12.836;2023-03-16T07:23:35;4.50;99.90
37300;DHT22;23184;51.902;12.836;2023-03-16T07:26:01;4.80;99.90
37300;DHT22;23184;51.902;12.836;2023-03-16T07:28:27;4.90;99.90
37300;DHT22;23184;51.902;12.836;2023-03-16T07:30:53;5.30;99.90
37300;DHT22;23184;51.902;12.836;2023-03-16T07:33:19;5.60;99.90
37300;DHT22;23184;51.902;12.836;2023-03-16T07:35:45;5.70;99.90
37300;DHT22;23184;51.902;12.836;2023-03-16T07:38:10;5.00;99.90
37300;DHT22;23184;51.902;12.836;2023-03-16T07:40:38;4.30;99.90
37300;DHT22;23184;51.902;12.836;2023-03-16T07:43:04;3.80;99.90
37300;DHT22;23184;51.902;12.836;2023-03-16T07:45:30;3.20;99.90
37300;DHT22;23184;51.902;12.836;2023-03-16T07:47:55;3.60;99.90
37300;DHT22;23184;51.902;12.836;2023-03-16T07:50:21;4.00;99.90
37300;DHT22;23184;51.902;12.836;2023-03-16T07:52:47;4.40;99.90
37300;DHT22;23184;51.902;12.836;2023-03-16T07:55:12;3.70;99.90
37300;DHT22;23184;51.902;12.836;2023-03-16T07:57:38;3.70;99.90
37300;DHT22;23184;51.902;12.836;2023-03-16T08:00:07;3.80;99.90
37300;DHT22;23184;51.902;12.836;2023-03-16T08:02:33;4.20;99.90
37300;DHT22;23184;51.902;12.836;2023-03-16T08:04:58;4.50;99.90
37300;DHT22;23184;51.902;12.836;2023-03-16T08:07:24;4.70;99.90
37300;DHT22;23184;51.902;12.836;2023-03-16T08:09:50;4.50;99.90
37300;DHT22;23184;51.902;12.836;2023-03-16T08:12:16;5.10;99.90
37300;DHT22;23184;51.902;12.836;2023-03-16T08:14:41;5.70;99.90
37300;DHT22;23184;51.902;12.836;2023-03-16T08:17:09;6.20;99.90
37300;DHT22;23184;51.902;12.836;2023-03-16T08:19:36;6.60;99.90
37300;DHT22;23184;51.902;12.836;2023-03-16T08:22:03;6.50;99.90
37300;DHT22;23184;51.902;12.836;2023-03-16T08:24:29;5.80;99.90
37300;DHT22;23184;51.902;12.836;2023-03-16T08:26:56;5.70;99.90
37300;DHT22;23184;51.902;12.836;2023-03-16T08:29:22;5.60;99.90
37300;DHT22;23184;51.902;12.836;2023-03-16T08:31:47;5.70;99.90
37300;DHT22;23184;51.902;12.836;2023-03-16T08:34:13;6.00;99.90
37300;DHT22;23184;51.902;12.836;2023-03-16T08:36:40;6.10;99.90
37300;DHT22;23184;51.902;12.836;2023-03-16T08:39:08;5.80;99.90
37300;DHT22;23184;51.902;12.836;2023-03-16T08:41:34;6.10;99.90
37300;DHT22;23184;51.902;12.836;2023-03-16T08:43:59;6.20;99.90
37300;DHT22;23184;51.902;12.836;2023-03-16T08:46:26;6.70;99.90
37300;DHT22;23184;51.902;12.836;2023-03-16T08:48:51;7.70;99.90
37300;DHT22;23184;51.902;12.836;2023-03-16T08:51:20;8.10;99.90
37300;DHT22;23184;51.902;12.836;2023-03-16T08:53:45;8.50;99.90
37300;DHT22;23184;51.902;12.836;2023-03-16T08:56:12;8.80;99.90
37300;DHT22;23184;51.902;12.836;2023-03-16T08:58:40;8.80;99.90
37300;DHT22;23184;51.902;12.836;2023-03-16T09:01:10;9.00;99.90
37300;DHT22;23184;51.902;12.836;2023-03-16T09:03:36;9.70;99.90
37300;DHT22;23184;51.902;12.836;2023-03-16T09:06:04;9.50;99.90
37300;DHT22;23184;51.902;12.836;2023-03-16T09:08:31;9.80;99.90
37300;DHT22;23184;51.902;12.836;2023-03-16T09:11:04;10.10;99.90
37300;DHT22;23184;51.902;12.836;2023-03-16T09:13:33;9.20;99.90
37300;DHT22;23184;51.902;12.836;2023-03-16T09:15:58;9.60;99.90
37300;DHT22;23184;51.902;12.836;2023-03-16T09:18:25;9.90;99.90
37300;DHT22;23184;51.902;12.836;2023-03-16T09:21:02;10.40;99.90
37300;DHT22;23184;51.902;12.836;2023-03-16T09:23:28;9.80;99.90
37300;DHT22;23184;51.902;12.836;2023-03-16T09:25:58;9.40;99.90
37300;DHT22;23184;51.902;12.836;2023-03-16T09:28:26;10.00;99.90
37300;DHT22;23184;51.902;12.836;2023-03-16T09:30:55;10.00;99.90
37300;DHT22;23184;51.902;12.836;2023-03-16T09:33:24;9.90;99.90
37300;DHT22;23184;51.902;12.836;2023-03-16T09:35:51;10.00;99.90
37300;DHT22;23184;51.902;12.836;2023-03-16T09:38:17;9.70;99.90
37300;DHT22;23184;51.902;12.836;2023-03-16T09:40:44;9.50;99.90
37300;DHT22;23184;51.902;12.836;2023-03-16T09:46:02;9.40;99.90
37300;DHT22;23184;51.902;12.836;2023-03-16T09:48:32;10.30;99.90
37300;DHT22;23184;51.902;12.836;2023-03-16T09:50:59;10.60;98.20
37300;DHT22;23184;51.902;12.836;2023-03-16T09:53:27;10.80;99.00
37300;DHT22;23184;51.902;12.836;2023-03-16T09:56:03;11.00;95.40
37300;DHT22;23184;51.902;12.836;2023-03-16T09:58:30;10.40;95.40
37300;DHT22;23184;51.902;12.836;2023-03-16T10:01:14;10.70;92.90
37300;DHT22;23184;51.902;12.836;2023-03-16T10:03:49;8.90;96.60
37300;DHT22;23184;51.902;12.836;2023-03-16T10:06:16;9.40;99.60
37300;DHT22;23184;51.902;12.836;2023-03-16T10:08:48;10.40;96.80
37300;DHT22;23184;51.902;12.836;2023-03-16T10:11:39;10.90;94.60
37300;DHT22;23184;51.902;12.836;2023-03-16T10:14:45;10.90;94.60
37300;DHT22;23184;51.902;12.836;2023-03-16T10:17:29;10.00;94.60
37300;DHT22;23184;51.902;12.836;2023-03-16T10:20:03;11.40;93.70
37300;DHT22;23184;51.902;12.836;2023-03-16T10:22:35;11.90;93.80
37300;DHT22;23184;51.902;12.836;2023-03-16T10:25:08;11.10;92.80
37300;DHT22;23184;51.902;12.836;2023-03-16T10:27:39;9.80;99.60
37300;DHT22;23184;51.902;12.836;2023-03-16T10:30:26;10.00;96.00
37300;DHT22;23184;51.902;12.836;2023-03-16T10:32:56;10.40;93.40
37300;DHT22;23184;51.902;12.836;2023-03-16T10:35:43;10.60;93.30
37300;DHT22;23184;51.902;12.836;2023-03-16T10:43:50;11.70;89.10
37300;DHT22;23184;51.902;12.836;2023-03-16T10:46:16;11.70;85.10
37300;DHT22;23184;51.902;12.836;2023-03-16T10:48:51;10.20;91.70
37300;DHT22;23184;51.902;12.836;2023-03-16T10:51:23;10.40;93.70
37300;DHT22;23184;51.902;12.836;2023-03-16T10:53:51;11.10;90.60
37300;DHT22;23184;51.902;12.836;2023-03-16T10:56:23;10.90;83.80
37300;DHT22;23184;51.902;12.836;2023-03-16T10:58:51;9.90;88.90
37300;DHT22;23184;51.902;12.836;2023-03-16T11:01:27;10.10;90.80
37300;DHT22;23184;51.902;12.836;2023-03-16T11:03:55;10.30;89.50
37300;DHT22;23184;51.902;12.836;2023-03-16T11:06:29;11.00;90.50
37300;DHT22;23184;51.902;12.836;2023-03-16T11:09:09;11.80;85.50
37300;DHT22;23184;51.902;12.836;2023-03-16T11:11:37;12.30;82.70
37300;DHT22;23184;51.902;12.836;2023-03-16T11:14:12;12.40;82.00
37300;DHT22;23184;51.902;12.836;2023-03-16T11:16:43;12.40;74.50
37300;DHT22;23184;51.902;12.836;2023-03-16T11:22:03;13.30;76.40
37300;DHT22;23184;51.902;12.836;2023-03-16T11:31:23;11.20;79.00
37300;DHT22;23184;51.902;12.836;2023-03-16T11:33:17;11.50;77.40
37300;DHT22;23184;51.902;12.836;2023-03-16T11:36:05;10.90;81.10
37300;DHT22;23184;51.902;12.836;2023-03-16T11:41:32;10.20;87.20
37300;DHT22;23184;51.902;12.836;2023-03-16T11:46:56;9.60;87.30
37300;DHT22;23184;51.902;12.836;2023-03-16T11:49:47;9.50;90.30
37300;DHT22;23184;51.902;12.836;2023-03-16T12:00:43;8.70;92.40
37300;DHT22;23184;51.902;12.836;2023-03-16T12:04:24;8.70;92.30
37300;DHT22;23184;51.902;12.836;2023-03-16T12:06:42;8.70;90.70
37300;DHT22;23184;51.902;12.836;2023-03-16T12:09:35;8.70;90.50
37300;DHT22;23184;51.902;12.836;2023-03-16T12:12:20;8.80;92.40
37300;DHT22;23184;51.902;12.836;2023-03-16T12:14:58;9.10;94.60
37300;DHT22;23184;51.902;12.836;2023-03-16T12:17:30;9.00;86.20
37300;DHT22;23184;51.902;12.836;2023-03-16T12:20:02;9.00;90.40
37300;DHT22;23184;51.902;12.836;2023-03-16T12:22:37;9.10;89.60
37300;DHT22;23184;51.902;12.836;2023-03-16T12:25:12;9.00;86.80
37300;DHT22;23184;51.902;12.836;2023-03-16T12:27:39;9.00;88.70
37300;DHT22;23184;51.902;12.836;2023-03-16T12:30:26;9.00;85.90
37300;DHT22;23184;51.902;12.836;2023-03-16T12:38:27;9.90;90.40
37300;DHT22;23184;51.902;12.836;2023-03-16T12:43:37;10.30;82.20
37300;DHT22;23184;51.902;12.836;2023-03-16T12:46:11;10.60;76.40
37300;DHT22;23184;51.902;12.836;2023-03-16T12:48:57;11.10;74.40
37300;DHT22;23184;51.902;12.836;2023-03-16T12:51:38;11.50;74.30
37300;DHT22;23184;51.902;12.836;2023-03-16T12:54:17;12.30;70.80
37300;DHT22;23184;51.902;12.836;2023-03-16T12:56:45;13.00;71.90
37300;DHT22;23184;51.902;12.836;2023-03-16T12:59:19;13.10;70.30
37300;DHT22;23184;51.902;12.836;2023-03-16T13:01:52;14.30;68.10
37300;DHT22;23184;51.902;12.836;2023-03-16T13:04:29;14.90;66.60
37300;DHT22;23184;51.902;12.836;2023-03-16T13:07:08;15.00;61.80
37300;DHT22;23184;51.902;12.836;2023-03-16T13:09:43;15.20;61.40
37300;DHT22;23184;51.902;12.836;2023-03-16T13:12:21;15.00;62.20
37300;DHT22;23184;51.902;12.836;2023-03-16T13:14:47;15.60;60.50
37300;DHT22;23184;51.902;12.836;2023-03-16T13:19:40;15.20;60.70
37300;DHT22;23184;51.902;12.836;2023-03-16T13:24:55;14.80;59.30
37300;DHT22;23184;51.902;12.836;2023-03-16T13:27:31;15.20;59.10
37300;DHT22;23184;51.902;12.836;2023-03-16T13:29:59;15.60;59.70
37300;DHT22;23184;51.902;12.836;2023-03-16T13:32:30;15.70;56.80
37300;DHT22;23184;51.902;12.836;2023-03-16T13:34:58;15.90;55.20
37300;DHT22;23184;51.902;12.836;2023-03-16T13:37:27;16.20;54.40
37300;DHT22;23184;51.902;12.836;2023-03-16T13:39:55;15.30;52.40
37300;DHT22;23184;51.902;12.836;2023-03-16T13:42:23;15.30;54.70
37300;DHT22;23184;51.902;12.836;2023-03-16T13:44:54;15.60;54.30
37300;DHT22;23184;51.902;12.836;2023-03-16T13:47:20;15.00;58.20
37300;DHT22;23184;51.902;12.836;2023-03-16T13:49:54;15.40;58.70
37300;DHT22;23184;51.902;12.836;2023-03-16T13:54:54;15.30;53.80
37300;DHT22;23184;51.902;12.836;2023-03-16T13:57:23;15.10;56.00
37300;DHT22;23184;51.902;12.836;2023-03-16T13:59:49;15.50;55.70
37300;DHT22;23184;51.902;12.836;2023-03-16T14:02:18;15.10;56.50
37300;DHT22;23184;51.902;12.836;2023-03-16T14:04:46;14.70;61.00
37300;DHT22;23184;51.902;12.836;2023-03-16T14:07:15;15.20;55.90
37300;DHT22;23184;51.902;12.836;2023-03-16T14:09:41;15.10;56.10
37300;DHT22;23184;51.902;12.836;2023-03-16T14:12:15;14.80;56.70
37300;DHT22;23184;51.902;12.836;2023-03-16T14:14:41;14.90;56.20
37300;DHT22;23184;51.902;12.836;2023-03-16T14:17:18;15.00;55.60
37300;DHT22;23184;51.902;12.836;2023-03-16T14:19:47;14.80;56.30
37300;DHT22;23184;51.902;12.836;2023-03-16T14:22:19;14.60;54.80
37300;DHT22;23184;51.902;12.836;2023-03-16T14:24:50;15.00;57.40
37300;DHT22;23184;51.902;12.836;2023-03-16T14:27:21;14.70;54.40
37300;DHT22;23184;51.902;12.836;2023-03-16T14:29:57;15.50;54.20
37300;DHT22;23184;51.902;12.836;2023-03-16T14:32:31;15.80;53.70
37300;DHT22;23184;51.902;12.836;2023-03-16T14:35:14;15.60;53.30
37300;DHT22;23184;51.902;12.836;2023-03-16T14:37:41;15.20;54.20
37300;DHT22;23184;51.902;12.836;2023-03-16T14:40:25;15.50;54.30
37300;DHT22;23184;51.902;12.836;2023-03-16T14:42:53;15.10;53.30
37300;DHT22;23184;51.902;12.836;2023-03-16T14:45:20;15.50;56.10
37300;DHT22;23184;51.902;12.836;2023-03-16T14:47:47;15.60;54.40
37300;DHT22;23184;51.902;12.836;2023-03-16T14:50:24;16.20;54.30
37300;DHT22;23184;51.902;12.836;2023-03-16T14:52:50;15.40;55.20
37300;DHT22;23184;51.902;12.836;2023-03-16T14:55:19;15.70;56.50
37300;DHT22;23184;51.902;12.836;2023-03-16T14:57:46;15.60;55.50
37300;DHT22;23184;51.902;12.836;2023-03-16T15:00:15;15.00;56.10
37300;DHT22;23184;51.902;12.836;2023-03-16T15:02:43;15.00;56.30
37300;DHT22;23184;51.902;12.836;2023-03-16T15:05:14;15.00;57.80
37300;DHT22;23184;51.902;12.836;2023-03-16T15:07:44;14.50;55.60
37300;DHT22;23184;51.902;12.836;2023-03-16T15:10:16;14.30;57.50
37300;DHT22;23184;51.902;12.836;2023-03-16T15:12:44;14.30;56.60
37300;DHT22;23184;51.902;12.836;2023-03-16T15:15:17;14.20;58.20
37300;DHT22;23184;51.902;12.836;2023-03-16T15:17:44;14.10;59.20
37300;DHT22;23184;51.902;12.836;2023-03-16T15:20:16;14.00;58.20
37300;DHT22;23184;51.902;12.836;2023-03-16T15:22:43;13.80;58.90
37300;DHT22;23184;51.902;12.836;2023-03-16T15:28:00;14.10;58.40
37300;DHT22;23184;51.902;12.836;2023-03-16T15:30:26;13.80;58.40
37300;DHT22;23184;51.902;12.836;2023-03-16T15:32:53;13.70;59.60
37300;DHT22;23184;51.902;12.836;2023-03-16T15:35:19;13.10;59.40
37300;DHT22;23184;51.902;12.836;2023-03-16T15:37:45;12.70;60.90
37300;DHT22;23184;51.902;12.836;2023-03-16T15:40:15;12.40;59.30
37300;DHT22;23184;51.902;12.836;2023-03-16T15:42:41;12.30;62.40
37300;DHT22;23184;51.902;12.836;2023-03-16T15:45:15;12.60;62.30
37300;DHT22;23184;51.902;12.836;2023-03-16T15:47:49;12.60;61.70
37300;DHT22;23184;51.902;12.836;2023-03-16T15:50:17;12.20;61.50
37300;DHT22;23184;51.902;12.836;2023-03-16T15:52:45;11.60;62.60
37300;DHT22;23184;51.902;12.836;2023-03-16T15:55:20;11.60;65.50
37300;DHT22;23184;51.902;12.836;2023-03-16T15:57:48;11.10;65.50
37300;DHT22;23184;51.902;12.836;2023-03-16T16:02:47;10.10;67.50
37300;DHT22;23184;51.902;12.836;2023-03-16T16:05:12;9.80;67.80
37300;DHT22;23184;51.902;12.836;2023-03-16T16:07:38;9.50;68.40
37300;DHT22;23184;51.902;12.836;2023-03-16T16:10:04;9.30;69.90
37300;DHT22;23184;51.902;12.836;2023-03-16T16:12:30;9.20;72.30
37300;DHT22;23184;51.902;12.836;2023-03-16T16:14:56;9.00;72.90
37300;DHT22;23184;51.902;12.836;2023-03-16T16:17:22;8.80;73.80
37300;DHT22;23184;51.902;12.836;2023-03-16T16:19:53;8.70;74.00
37300;DHT22;23184;51.902;12.836;2023-03-16T16:22:19;8.60;75.70
37300;DHT22;23184;51.902;12.836;2023-03-16T16:24:45;8.50;76.10
37300;DHT22;23184;51.902;12.836;2023-03-16T16:27:11;8.40;76.60
37300;DHT22;23184;51.902;12.836;2023-03-16T16:29:37;8.30;77.20